Time;durP1;ratioP1;P1;durP2;ratioP2;P2;SDS_P1;SDS_P2;PMS_P1;PMS_P2;Temp;Humidity;BMP_temperature;BMP_pressure;BME280_temperature;BME280_humidity;BME280_pressure;Samples;Min_cycle;Max_cycle;Signal;HPM_P1;HPM_P2
2024/03/17 00:02:14;;;;;;;58.10;45.05;;;;;;;;;;5090021;28;20043;-69
2024/03/17 00:05:18;;;;;;;64.38;44.63;;;;;;;;;;5091225;28;20340;-70
2024/03/17 00:08:22;;;;;;;64.05;45.42;;;;;;;;;;5090381;28;20499;-69
2024/03/17 00:11:27;;;;;;;61.33;45.35;;;;;;;;;;5091002;28;20039;-69
2024/03/17 00:14:31;;;;;;;58.60;44.20;;;;;;;;;;5090873;28;20051;-69
2024/03/17 00:17:35;;;;;;;64.05;44.83;;;;;;;;;;5090805;28;20518;-69
2024/03/17 00:20:40;;;;;;;62.70;46.83;;;;;;;;;;5090650;28;20554;-69
2024/03/17 00:23:44;;;;;;;67.88;48.95;;;;;;;;;;5093364;28;20039;-69
2024/03/17 00:26:49;;;;;;;69.45;49.72;;;;;;;;;;5094281;28;20054;-69
2024/03/17 00:29:53;;;;;;;74.95;50.45;;;;;;;;;;5094887;28;20491;-69
2024/03/17 00:32:58;;;;;;;69.15;51.05;;;;;;;;;;5094795;28;20043;-69
2024/03/17 00:36:02;;;;;;;70.63;49.63;;;;;;;;;;5093622;28;20043;-69
2024/03/17 00:39:07;;;;;;;66.68;49.55;;;;;;;;;;5093669;28;20043;-69
2024/03/17 00:42:11;;;;;;;68.55;48.60;;;;;;;;;;5094710;28;20487;-69
2024/03/17 00:45:16;;;;;;;72.30;50.25;;;;;;;;;;5095027;28;20043;-69
2024/03/17 00:48:20;;;;;;;77.95;56.58;;;;;;;;;;5093864;28;20507;-69
2024/03/17 00:51:24;;;;;;;118.05;82.75;;;;;;;;;;5094038;28;20047;-69
2024/03/17 00:54:29;;;;;;;124.70;87.82;;;;;;;;;;5093973;28;20059;-69
2024/03/17 00:57:33;;;;;;;146.20;103.07;;;;;;;;;;5093911;28;20510;-69
2024/03/17 01:00:38;;;;;;;110.43;82.22;;;;;;;;;;5093917;28;20039;-69
2024/03/17 01:03:42;;;;;;;90.07;66.43;;;;;;;;;;5094201;28;20498;-69
2024/03/17 01:06:46;;;;;;;88.88;65.10;;;14.30;99.90;;;;;;5093762;28;20423;-69
2024/03/17 01:09:50;;;;;;;80.50;58.97;;;;;;;;;;5093035;28;20040;-69
2024/03/17 01:12:55;;;;;;;83.65;61.58;;;;;;;;;;5093867;28;20043;-69
2024/03/17 01:15:59;;;;;;;78.78;56.60;;;;;;;;;;5093888;28;20055;-69
2024/03/17 01:19:03;;;;;;;80.55;54.05;;;;;;;;;;5093631;28;20055;-69
2024/03/17 01:22:10;;;;;;;77.10;53.85;;;;;;;;;;5093609;28;20047;-69
2024/03/17 01:25:15;;;;;;;71.18;49.25;;;;;;;;;;5093372;28;20399;-70
2024/03/17 01:28:22;;;;;;;65.88;46.97;;;;;;;;;;5093182;28;20051;-69
2024/03/17 01:31:26;;;;;;;62.03;45.95;;;;;;;;;;5093554;28;20391;-70
2024/03/17 01:34:31;;;;;;;65.22;46.58;;;;;;;;;;5092382;28;20043;-70
2024/03/17 01:37:35;;;;;;;59.53;42.28;;;;;;;;;;5093170;28;20691;-70
2024/03/17 01:40:43;;;;;;;51.78;37.38;;;;;;;;;;5092491;28;20209;-70
2024/03/17 01:43:47;;;;;;;58.17;42.03;;;;;;;;;;5092523;28;20498;-70
2024/03/17 01:46:51;;;;;;;54.55;42.05;;;;;;;;;;5093209;28;20423;-69
2024/03/17 01:49:55;;;;;;;55.42;42.88;;;;;;;;;;5092051;28;20051;-69
2024/03/17 01:53:04;;;;;;;56.58;44.70;;;13.30;99.90;;;;;;5093069;28;20495;-70
2024/03/17 01:56:11;;;;;;;62.03;45.55;;;13.40;99.90;;;;;;5092955;28;20038;-69
2024/03/17 01:59:15;;;;;;;61.75;42.83;;;;;;;;;;5092484;28;20068;-69
2024/03/17 02:02:20;;;;;;;57.58;43.17;;;;;;;;;;5092557;28;20058;-69
2024/03/17 02:05:24;;;;;;;60.47;43.47;;;;;;;;;;5092852;28;20110;-69
2024/03/17 02:08:28;;;;;;;61.22;43.13;;;13.20;99.90;;;;;;5092254;28;20059;-69
2024/03/17 02:11:34;;;;;;;57.20;43.85;;;13.40;99.90;;;;;;5092662;28;20062;-69
2024/03/17 02:14:38;;;;;;;56.10;42.25;;;13.20;99.90;;;;;;5092442;28;20051;-69
2024/03/17 02:17:43;;;;;;;59.35;42.25;;;;;;;;;;5092522;28;20632;-69
2024/03/17 02:20:58;;;;;;;60.10;43.25;;;;;;;;;;5092359;28;20138;-69
2024/03/17 02:24:02;;;;;;;56.90;42.35;;;;;;;;;;5092500;28;20051;-69
2024/03/17 02:27:07;;;;;;;52.00;38.65;;;;;;;;;;5091113;28;20051;-69
2024/03/17 02:30:11;;;;;;;54.38;38.42;;;;;;;;;;5092382;28;20051;-69
2024/03/17 02:33:15;;;;;;;57.00;38.63;;;;;;;;;;5092332;28;20234;-69
2024/03/17 02:36:19;;;;;;;53.75;38.97;;;;;;;;;;5091368;28;20424;-69
2024/03/17 02:39:36;;;;;;;58.95;37.17;;;;;;;;;;5091883;28;20046;-69
2024/03/17 02:42:41;;;;;;;49.20;36.83;;;;;;;;;;5091153;28;20503;-69
2024/03/17 02:45:46;;;;;;;46.30;35.92;;;;;;;;;;5091771;28;20051;-69
2024/03/17 02:48:52;;;;;;;44.72;34.90;;;9.40;99.90;;;;;;5091957;28;20515;-69
2024/03/17 02:51:59;;;;;;;43.13;33.08;;;13.10;99.90;;;;;;5091661;28;20106;-69
2024/03/17 02:55:03;;;;;;;47.03;34.00;;;;;;;;;;5091737;28;20514;-69
2024/03/17 02:58:07;;;;;;;40.35;33.00;;;12.50;99.90;;;;;;5091694;28;20554;-69
2024/03/17 03:01:12;;;;;;;44.85;33.13;;;12.90;99.90;;;;;;5091784;28;20059;-70
2024/03/17 03:04:16;;;;;;;44.63;34.08;;;;;;;;;;5090907;28;20043;-69
2024/03/17 03:07:20;;;;;;;50.65;33.92;;;12.90;99.90;;;;;;5091626;28;20055;-69
2024/03/17 03:10:24;;;;;;;41.95;29.88;;;11.70;99.90;;;;;;5090463;28;20055;-69
2024/03/17 03:13:28;;;;;;;49.10;31.23;;;12.70;99.90;;;;;;5090621;28;20069;-69
2024/03/17 03:16:33;;;;;;;41.15;31.10;;;12.80;99.90;;;;;;5091405;28;20055;-69
2024/03/17 03:19:37;;;;;;;42.60;31.73;;;;;;;;;;5091423;28;20047;-69
2024/03/17 03:22:41;;;;;;;40.58;27.92;;;12.90;99.90;;;;;;5091459;28;20050;-69
2024/03/17 03:25:54;;;;;;;29.17;20.85;;;12.90;99.90;;;;;;5091162;28;20058;-69
2024/03/17 03:28:58;;;;;;;33.60;20.55;;;12.90;99.90;;;;;;5091335;28;20051;-69
2024/03/17 03:32:02;;;;;;;28.08;20.05;;;13.00;99.90;;;;;;5091085;28;20047;-69
2024/03/17 03:35:06;;;;;;;27.92;18.10;;;13.20;99.90;;;;;;5091112;28;20055;-69
2024/03/17 03:38:11;;;;;;;32.42;19.10;;;13.20;99.90;;;;;;5091109;28;20035;-69
2024/03/17 03:41:19;;;;;;;33.28;18.95;;;13.00;99.90;;;;;;5090937;28;20031;-69
2024/03/17 03:44:22;;;;;;;29.48;20.10;;;12.90;99.90;;;;;;5091104;28;20067;-69
2024/03/17 03:47:27;;;;;;;28.70;19.23;;;12.80;99.90;;;;;;5090805;28;20510;-69
2024/03/17 03:50:31;;;;;;;25.25;18.70;;;12.70;99.90;;;;;;5090918;28;20035;-70
2024/03/17 03:53:37;;;;;;;30.63;18.73;;;12.70;99.90;;;;;;5090802;28;20059;-69
2024/03/17 03:56:41;;;;;;;34.47;19.73;;;12.80;99.90;;;;;;5090817;28;20039;-69
2024/03/17 03:59:44;;;;;;;32.50;18.58;;;12.80;99.90;;;;;;5095194;28;20039;-69
2024/03/17 04:02:50;;;;;;;29.92;18.08;;;12.70;99.90;;;;;;5095221;28;20070;-69
2024/03/17 04:06:05;;;;;;;28.10;18.50;;;12.60;99.90;;;;;;5095107;28;20502;-69
2024/03/17 04:09:09;;;;;;;24.48;17.65;;;12.70;99.90;;;;;;5094803;28;20400;-69
2024/03/17 04:12:13;;;;;;;29.35;17.77;;;12.60;99.90;;;;;;5094715;28;20051;-69
2024/03/17 04:15:17;;;;;;;25.20;15.02;;;12.50;99.90;;;;;;5094997;28;20051;-69
2024/03/17 04:18:30;;;;;;;23.20;14.45;;;12.90;99.90;;;;;;5093714;28;20047;-69
2024/03/17 04:21:34;;;;;;;26.20;14.18;;;13.70;99.90;;;;;;5094059;28;20047;-69
2024/03/17 04:24:37;;;;;;;22.58;13.60;;;13.90;99.90;;;;;;5094769;28;20051;-69
2024/03/17 04:27:41;;;;;;;21.75;12.85;;;12.50;99.90;;;;;;5094430;28;20063;-69
2024/03/17 04:30:46;;;;;;;21.88;12.88;;;12.40;99.90;;;;;;5093551;28;20051;-69
2024/03/17 04:33:51;;;;;;;21.83;13.80;;;12.30;99.90;;;;;;5094426;28;20043;-69
2024/03/17 04:36:55;;;;;;;18.83;12.55;;;12.10;99.90;;;;;;5094318;28;20047;-69
2024/03/17 04:39:59;;;;;;;20.23;12.75;;;13.20;99.90;;;;;;5093779;28;20050;-69
2024/03/17 04:43:03;;;;;;;21.15;12.48;;;11.90;99.90;;;;;;5081856;28;20043;-69
2024/03/17 04:46:11;;;;;;;19.08;11.48;;;12.00;99.90;;;;;;5094091;28;20075;-69
2024/03/17 04:49:15;;;;;;;19.90;11.90;;;12.00;99.90;;;;;;5094156;28;20067;-69
2024/03/17 04:52:20;;;;;;;17.65;11.20;;;13.70;99.90;;;;;;5094209;28;20047;-69
2024/03/17 04:55:24;;;;;;;21.20;11.27;;;12.00;99.90;;;;;;5094482;28;20066;-69
2024/03/17 04:58:28;;;;;;;17.30;11.20;;;12.00;99.90;;;;;;5098136;28;20040;-69
2024/03/17 05:01:36;;;;;;;23.10;10.48;;;13.30;99.90;;;;;;5098333;28;20039;-69
2024/03/17 05:04:42;;;;;;;16.45;9.93;;;12.00;99.90;;;;;;5093961;28;20039;-69
2024/03/17 05:07:45;;;;;;;14.68;10.48;;;12.00;99.90;;;;;;5093851;28;20059;-69
2024/03/17 05:10:59;;;;;;;16.33;10.32;;;13.60;99.90;;;;;;5094018;28;20035;-69
2024/03/17 05:14:03;;;;;;;14.35;10.05;;;12.00;99.90;;;;;;5094203;28;20066;-69
2024/03/17 05:17:07;;;;;;;16.05;9.65;;;12.00;99.90;;;;;;5093987;28;20039;-69
2024/03/17 05:20:13;;;;;;;17.40;10.18;;;12.00;99.90;;;;;;5093570;28;20047;-69
2024/03/17 05:23:17;;;;;;;17.15;10.95;;;12.10;99.90;;;;;;5093845;28;20383;-69
2024/03/17 05:26:27;;;;;;;22.00;13.40;;;12.00;99.90;;;;;;5093364;28;20047;-69
2024/03/17 05:29:31;;;;;;;17.48;11.35;;;11.90;99.90;;;;;;5093393;28;20051;-69
2024/03/17 05:32:35;;;;;;;14.75;10.45;;;11.90;99.90;;;;;;5081085;28;20047;-69
2024/03/17 05:35:38;;;;;;;16.27;9.00;;;13.70;99.90;;;;;;5093372;28;20039;-69
2024/03/17 05:38:42;;;;;;;13.95;9.63;;;12.00;99.90;;;;;;5093191;28;20047;-69
2024/03/17 05:41:48;;;;;;;14.68;10.02;;;12.10;99.90;;;;;;5092031;28;20039;-69
2024/03/17 05:44:53;;;;;;;13.20;9.05;;;12.00;99.90;;;;;;5093133;28;20490;-69
2024/03/17 05:47:56;;;;;;;20.45;10.05;;;12.20;99.90;;;;;;5092867;28;20051;-69
2024/03/17 05:51:04;;;;;;;26.23;13.80;;;12.60;99.90;;;;;;5093239;28;20039;-69
2024/03/17 05:54:08;;;;;;;15.10;8.70;;;13.40;99.90;;;;;;5092990;28;20043;-69
2024/03/17 05:57:16;;;;;;;14.75;8.32;;;14.70;99.90;;;;;;5092762;28;20047;-70
2024/03/17 06:00:20;;;;;;;18.88;9.02;;;;;;;;;;5092235;28;20051;-68
2024/03/17 06:03:24;;;;;;;16.63;9.50;;;;;;;;;;5092978;28;20048;-68
2024/03/17 06:06:28;;;;;;;15.70;11.30;;;;;;;;;;5092860;28;20044;-68
2024/03/17 06:09:33;;;;;;;21.33;12.30;;;;;;;;;;5080177;28;20047;-68
2024/03/17 06:12:38;;;;;;;18.08;11.57;;;;;;;;;;5092530;28;20043;-68
2024/03/17 06:15:42;;;;;;;17.08;10.32;;;;;;;;;;5092349;28;20043;-68
2024/03/17 06:18:50;;;;;;;13.95;9.63;;;;;;;;;;5092587;28;20051;-68
2024/03/17 06:21:54;;;;;;;16.13;9.50;;;;;;;;;;5091872;28;20051;-68
2024/03/17 06:24:58;;;;;;;16.35;10.68;;;;;;;;;;5092147;28;20044;-68
2024/03/17 06:28:03;;;;;;;13.80;9.82;;;;;;;;;;5091907;28;20059;-68
2024/03/17 06:31:10;;;;;;;16.77;9.95;;;20.60;93.60;;;;;;5091989;28;20388;-68
2024/03/17 06:34:15;;;;;;;20.85;9.93;;;;;;;;;;5091503;28;20051;-69
2024/03/17 06:37:23;;;;;;;18.52;9.68;;;20.30;93.20;;;;;;5091868;28;20040;-69
2024/03/17 06:40:28;;;;;;;18.88;10.82;;;;;;;;;;5092163;28;20043;-69
2024/03/17 06:43:32;;;;;;;17.60;11.02;;;;;;;;;;5092191;28;20050;-68
2024/03/17 06:46:36;;;;;;;16.42;11.00;;;;;;;;;;5091839;28;20077;-68
2024/03/17 06:49:42;;;;;;;19.77;12.10;;;;;;;;;;5092028;28;20050;-68
2024/03/17 06:52:46;;;;;;;18.30;12.18;;;;;;;;;;5091804;28;20047;-68
2024/03/17 06:55:58;;;;;;;18.30;11.52;;;19.40;93.90;;;;;;5091547;28;20043;-69
2024/03/17 06:59:03;;;;;;;17.98;12.88;;;;;;;;;;5091723;28;20035;-68
2024/03/17 07:02:07;;;;;;;21.50;12.98;;;;;;;;;;5091557;28;20039;-69
2024/03/17 07:05:14;;;;;;;25.08;13.38;;;19.20;94.60;;;;;;5091555;28;20065;-68
2024/03/17 07:08:19;;;;;;;21.27;12.73;;;19.20;94.80;;;;;;5091259;28;20059;-69
2024/03/17 07:11:24;;;;;;;18.83;11.98;;;19.30;94.80;;;;;;5091579;28;20039;-69
2024/03/17 07:14:28;;;;;;;19.42;12.07;;;19.30;95.00;;;;;;5091487;28;20043;-69
2024/03/17 07:17:33;;;;;;;19.73;12.65;;;19.40;95.10;;;;;;5091067;28;20043;-68
2024/03/17 07:20:38;;;;;;;20.23;13.20;;;19.50;95.00;;;;;;5091370;28;20094;-68
2024/03/17 07:23:42;;;;;;;21.98;12.90;;;19.90;94.60;;;;;;5091251;28;20042;-68
2024/03/17 07:26:48;;;;;;;19.33;13.13;;;19.80;94.80;;;;;;5090916;28;20047;-68
2024/03/17 07:29:52;;;;;;;24.17;14.52;;;;;;;;;;5091052;28;20058;-69
2024/03/17 07:32:57;;;;;;;30.38;17.55;;;;;;;;;;5093371;28;20062;-68
2024/03/17 07:36:02;;;;;;;28.23;15.60;;;;;;;;;;5090348;28;20043;-69
2024/03/17 07:39:07;;;;;;;20.48;13.88;;;;;;;;;;5090183;28;20043;-69
2024/03/17 07:42:13;;;;;;;26.02;14.10;;;;;;;;;;5090925;28;20043;-68
2024/03/17 07:45:18;;;;;;;17.60;11.88;;;;;;;;;;5091186;28;20045;-68
2024/03/17 07:48:23;;;;;;;18.15;12.52;;;;;;;;;;5090094;28;20055;-70
2024/03/17 07:51:27;;;;;;;21.80;12.98;;;;;;;;;;5091152;28;20043;-70
2024/03/17 07:54:31;;;;;;;18.40;9.85;;;;;;;;;;5090182;28;20046;-69
2024/03/17 07:57:36;;;;;;;20.77;11.45;;;20.80;93.10;;;;;;5090857;28;20047;-70
2024/03/17 08:00:41;;;;;;;16.33;10.20;;;;;;;;;;5091015;28;20039;-68
2024/03/17 08:03:46;;;;;;;19.42;10.02;;;22.50;92.80;;;;;;5091015;28;20055;-68
2024/03/17 08:06:50;;;;;;;14.32;8.30;;;;;;;;;;5078495;28;20193;-68
2024/03/17 08:09:55;;;;;;;15.85;8.93;;;;;;;;;;5090951;28;20040;-69
2024/03/17 08:12:59;;;;;;;14.25;9.07;;;;;;;;;;5090163;28;20048;-68
2024/03/17 08:16:13;;;;;;;16.35;9.35;;;20.20;91.30;;;;;;5090866;28;20036;-69
2024/03/17 08:19:17;;;;;;;18.42;8.93;;;;;;;;;;5090422;28;20047;-68
2024/03/17 08:22:22;;;;;;;14.43;9.13;;;;;;;;;;5090805;28;20040;-69
2024/03/17 08:25:27;;;;;;;19.48;10.38;;;;;;;;;;5078143;28;20529;-68
2024/03/17 08:28:31;;;;;;;15.07;8.38;;;;;;;;;;5090419;28;20059;-69
2024/03/17 08:31:36;;;;;;;16.65;10.30;;;;;;;;;;5089938;28;20051;-69
2024/03/17 08:34:41;;;;;;;13.18;8.10;;;;;;;;;;5089789;28;20051;-69
2024/03/17 08:37:45;;;;;;;14.48;9.10;;;;;;;;;;5090610;28;20040;-69
2024/03/17 08:40:50;;;;;;;11.07;8.40;;;18.80;89.80;;;;;;5090168;28;20028;-68
2024/03/17 08:43:55;;;;;;;15.52;8.45;;;;;;;;;;5091746;28;20047;-69
2024/03/17 08:46:59;;;;;;;10.32;6.60;;;;;;;;;;5094320;28;20387;-69
2024/03/17 08:50:04;;;;;;;10.57;7.50;;;;;;;;;;5094264;28;20498;-69
2024/03/17 08:53:08;;;;;;;14.98;7.70;;;;;;;;;;5094076;28;20036;-69
2024/03/17 08:56:12;;;;;;;13.30;6.68;;;22.00;90.70;;;;;;5081727;28;20040;-69
2024/03/17 08:59:16;;;;;;;7.55;5.75;;;;;;;;;;5093913;28;20047;-70
2024/03/17 09:02:23;;;;;;;11.88;7.40;;;;;;;;;;5094226;28;20040;-70
2024/03/17 09:05:27;;;;;;;10.25;5.93;;;;;;;;;;5093806;28;20043;-70
2024/03/17 09:08:33;;;;;;;7.40;4.90;;;;;;;;;;5093705;28;20407;-68
2024/03/17 09:11:37;;;;;;;8.30;5.68;;;;;;;;;;5094055;28;20036;-70
2024/03/17 09:14:42;;;;;;;11.63;6.68;;;;;;;;;;5093572;28;20147;-70
2024/03/17 09:17:46;;;;;;;9.70;5.50;;;;;;;;;;5093705;28;20040;-70
2024/03/17 09:21:17;;;;;;;9.13;6.30;;;21.20;87.40;;;;;;5093058;28;20032;-70
2024/03/17 09:24:21;;;;;;;11.45;5.35;;;;;;;;;;5095258;28;20051;-70
2024/03/17 09:27:28;;;;;;;10.80;6.18;;;;;;;;;;5082304;28;20403;-70
2024/03/17 09:30:33;;;;;;;6.97;4.75;;;;;;;;;;5093743;28;20040;-70
2024/03/17 09:33:38;;;;;;;10.77;5.85;;;;;;;;;;5093550;28;20480;-70
2024/03/17 09:36:44;;;;;;;9.13;5.03;;;;;;;;;;5094117;28;20043;-70
2024/03/17 09:39:48;;;;;;;9.48;5.90;;;21.70;86.70;;;;;;5092735;28;20036;-70
2024/03/17 09:42:52;;;;;;;13.88;5.28;;;;;;;;;;5093261;28;20043;-70
2024/03/17 09:46:00;;;;;;;13.82;4.97;;;;;;;;;;5093299;28;20404;-70
2024/03/17 09:49:05;;;;;;;8.77;4.50;;;;;;;;;;5092892;28;20052;-70
2024/03/17 09:52:24;;;;;;;7.93;4.63;;;22.40;85.90;;;;;;5092855;28;20032;-70
2024/03/17 09:55:28;;;;;;;6.38;4.72;;;;;;;;;;5092104;28;20063;-70
2024/03/17 09:58:33;;;;;;;8.45;4.95;;;;;;;;;;5092935;28;20032;-70
2024/03/17 10:01:37;;;;;;;21.40;14.88;;;;;;;;;;5092909;28;20036;-70
2024/03/17 10:04:41;;;;;;;9.43;6.72;;;;;;;;;;5092999;28;20039;-69
2024/03/17 10:07:46;;;;;;;7.70;5.40;;;;;;;;;;5092508;28;20040;-70
2024/03/17 10:10:53;;;;;;;9.32;5.80;;;22.50;83.60;;;;;;5092604;28;20036;-70
2024/03/17 10:14:03;;;;;;;10.80;6.07;;;22.40;82.60;;;;;;5091912;28;20116;-70
2024/03/17 10:17:09;;;;;;;7.53;5.32;;;22.40;84.20;;;;;;5091222;28;20134;-69
2024/03/17 10:20:25;;;;;;;8.27;5.97;;;22.30;82.40;;;;;;5092607;28;20047;-69
2024/03/17 10:23:30;;;;;;;7.28;4.68;;;;;;;;;;5091555;28;20051;-69
2024/03/17 10:26:51;;;;;;;12.38;6.65;;;22.60;82.50;;;;;;5091813;28;20052;-68
2024/03/17 10:29:55;;;;;;;10.38;6.30;;;;;;;;;;5091998;28;20043;-69
2024/03/17 10:33:04;;;;;;;11.60;6.70;;;;;;;;;;5092029;28;20043;-69
2024/03/17 10:36:20;;;;;;;7.90;5.82;;;22.10;82.90;;;;;;5092144;28;20050;-70
2024/03/17 10:39:30;;;;;;;8.80;5.97;;;22.30;81.90;;;;;;5092050;28;20051;-69
2024/03/17 10:42:36;;;;;;;8.87;5.33;;;;;;;;;;5092128;28;20062;-69
2024/03/17 10:45:41;;;;;;;7.60;4.88;;;22.50;82.60;;;;;;5091979;28;20025;-69
2024/03/17 10:48:47;;;;;;;9.30;6.18;;;23.40;82.10;;;;;;5091681;28;20244;-70
2024/03/17 10:51:57;;;;;;;10.23;5.25;;;22.90;81.20;;;;;;5092042;28;20730;-70
2024/03/17 10:55:07;;;;;;;6.78;4.90;;;23.00;82.20;;;;;;5091323;28;20047;-70
2024/03/17 10:58:28;;;;;;;13.75;7.40;;;23.10;81.60;;;;;;5091003;28;20047;-70
2024/03/17 11:01:32;;;;;;;9.25;6.53;;;;;;;;;;5091635;28;20039;-70
2024/03/17 11:04:36;;;;;;;6.95;5.40;;;;;;;;;;5090691;28;20036;-70
2024/03/17 11:07:47;;;;;;;8.60;4.50;;;20.70;79.70;;;;;;5091248;28;20036;-69
2024/03/17 11:10:54;;;;;;;8.88;5.50;;;22.80;78.50;;;;;;5091681;28;20383;-69
2024/03/17 11:14:28;;;;;;;8.30;5.63;;;22.50;79.00;;;;;;5090457;28;20503;-69
2024/03/17 11:17:33;;;;;;;22.42;13.23;;;;;;;;;;5090396;28;20043;-69
2024/03/17 11:20:39;;;;;;;80.38;44.80;;;22.20;79.20;;;;;;5090868;28;20502;-69
2024/03/17 11:23:43;;;;;;;9.65;6.07;;;;;;;;;;5090437;28;20498;-69
2024/03/17 11:26:47;;;;;;;12.85;7.82;;;;;;;;;;5091071;28;20040;-69
2024/03/17 11:29:52;;;;;;;45.50;25.88;;;;;;;;;;5090264;28;20043;-70
2024/03/17 11:32:56;;;;;;;22.88;12.75;;;;;;;;;;5090402;28;20039;-69
2024/03/17 11:36:28;;;;;;;9.35;6.05;;;22.40;81.50;;;;;;5090477;28;20043;-70
2024/03/17 11:39:57;;;;;;;12.40;5.65;;;22.30;79.80;;;;;;5090950;28;20502;-69
2024/03/17 11:43:05;;;;;;;7.20;5.20;;;22.20;80.90;;;;;;5090403;28;20051;-69
2024/03/17 11:46:11;;;;;;;7.28;4.45;;;21.00;81.40;;;;;;5090288;28;20049;-69
2024/03/17 11:49:19;;;;;;;8.75;4.38;;;22.20;80.70;;;;;;5090751;28;20122;-69
2024/03/17 11:52:23;;;;;;;6.75;4.60;;;;;;;;;;5090953;28;20400;-69
2024/03/17 11:55:27;;;;;;;8.15;4.50;;;;;;;;;;5090897;28;20040;-70
2024/03/17 11:58:33;;;;;;;7.22;4.70;;;;;;;;;;5090823;28;20040;-70
2024/03/17 12:01:37;;;;;;;8.65;5.22;;;;;;;;;;5090790;28;20036;-69
2024/03/17 12:04:42;;;;;;;5.05;3.65;;;22.30;80.00;;;;;;5090781;28;20047;-70
2024/03/17 12:07:47;;;;;;;5.20;3.75;;;;;;;;;;5090804;28;20038;-70
2024/03/17 12:10:51;;;;;;;5.95;3.70;;;;;;;;;;5090632;28;20044;-70
2024/03/17 12:13:56;;;;;;;9.48;4.72;;;;;;;;;;5090723;28;20032;-70
2024/03/17 12:17:01;;;;;;;6.07;4.55;;;21.90;81.20;;;;;;5089871;28;20065;-70
2024/03/17 12:20:11;;;;;;;6.70;4.57;;;;;;;;;;5093826;28;20051;-69
2024/03/17 12:23:20;;;;;;;7.00;4.78;;;;;;;;;;5094883;28;20039;-70
2024/03/17 12:26:24;;;;;;;7.95;5.15;;;;;;;;;;5093702;28;20043;-69
2024/03/17 12:29:41;;;;;;;9.15;4.80;;;;;;;;;;5094479;28;20044;-69
2024/03/17 12:32:46;;;;;;;7.15;4.60;;;;;;;;;;5094669;28;20044;-70
2024/03/17 12:35:52;;;;;;;7.18;4.10;;;;;;;;;;5094353;28;20036;-70
2024/03/17 12:39:11;;;;;;;5.68;3.92;;;21.70;81.90;;;;;;5093279;28;20036;-69
2024/03/17 12:42:20;;;;;;;6.63;4.38;;;21.60;82.00;;;;;;5093695;28;20043;-69
2024/03/17 12:45:24;;;;;;;5.70;3.80;;;;;;;;;;5094504;28;20062;-69
2024/03/17 12:48:28;;;;;;;5.70;3.88;;;;;;;;;;5094152;28;20372;-69
2024/03/17 12:51:35;;;;;;;6.82;3.90;;;21.70;80.20;;;;;;5094353;28;20036;-69
2024/03/17 12:54:45;;;;;;;5.72;4.00;;;;;;;;;;5094292;28;20039;-70
2024/03/17 13:01:25;;;;;;;6.85;3.90;;;;;;;;;;5094209;28;20043;-69
2024/03/17 13:04:29;;;;;;;4.32;3.55;;;;;;;;;;5094198;28;20373;-69
2024/03/17 13:07:34;;;;;;;9.23;4.22;;;;;;;;;;5093974;28;20044;-69
2024/03/17 13:10:38;;;;;;;5.55;3.50;;;;;;;;;;5093774;28;20372;-69
2024/03/17 13:13:43;;;;;;;4.82;3.25;;;;;;;;;;5093965;28;20040;-68
2024/03/17 13:16:47;;;;;;;4.95;3.47;;;;;;;;;;5092987;28;20512;-69
2024/03/17 13:19:51;;;;;;;5.05;3.35;;;;;;;;;;5093068;28;20365;-68
2024/03/17 13:22:57;;;;;;;5.28;3.70;;;;;;;;;;5093477;28;20036;-69
2024/03/17 13:26:01;;;;;;;7.22;5.00;;;;;;;;;;5092541;28;20064;-68
2024/03/17 13:29:05;;;;;;;7.13;5.80;;;;;;;;;;5092667;28;20048;-69
2024/03/17 13:32:13;;;;;;;7.22;5.53;;;;;;;;;;5092628;28;20550;-69
2024/03/17 13:35:21;;;;;;;6.70;5.25;;;21.70;81.50;;;;;;5092613;28;20052;-69
2024/03/17 13:38:25;;;;;;;4.93;3.65;;;;;;;;;;5093513;28;20058;-69
2024/03/17 13:41:30;;;;;;;6.68;3.95;;;;;;;;;;5093540;28;20032;-70
2024/03/17 13:44:34;;;;;;;6.25;3.85;;;;;;;;;;5093371;28;20498;-70
2024/03/17 13:47:38;;;;;;;10.75;6.38;;;;;;;;;;5080632;28;20043;-70
2024/03/17 13:50:44;;;;;;;14.05;6.70;;;;;;;;;;5093446;28;20048;-70
2024/03/17 13:53:49;;;;;;;10.35;5.43;;;;;;;;;;5081589;28;20365;-69
2024/03/17 13:56:54;;;;;;;11.82;5.70;;;21.70;85.20;;;;;;5092921;28;20040;-69
2024/03/17 13:59:58;;;;;;;5.72;4.57;;;;;;;;;;5093192;28;20035;-70
2024/03/17 14:03:03;;;;;;;7.45;4.45;;;;;;;;;;5093590;28;20369;-69
2024/03/17 14:06:08;;;;;;;8.40;4.43;;;;;;;;;;5092398;28;20040;-69
2024/03/17 14:09:14;;;;;;;6.88;3.67;;;;;;;;;;5092696;28;20043;-69
2024/03/17 14:12:18;;;;;;;10.43;5.18;;;;;;;;;;5092594;28;20036;-69
2024/03/17 14:15:23;;;;;;;8.75;5.00;;;;;;;;;;5092610;28;20063;-69
2024/03/17 14:18:27;;;;;;;7.50;4.80;;;;;;;;;;5091443;28;20480;-69
2024/03/17 14:21:31;;;;;;;16.73;5.15;;;;;;;;;;5092518;28;20036;-70
2024/03/17 14:24:35;;;;;;;6.90;3.75;;;;;;;;;;5092188;28;20040;-70
2024/03/17 14:27:40;;;;;;;7.20;4.22;;;;;;;;;;5092252;28;20577;-70
2024/03/17 14:30:44;;;;;;;7.75;3.70;;;;;;;;;;5092434;28;20040;-69
2024/03/17 14:33:48;;;;;;;8.13;4.07;;;;;;;;;;5092415;28;20032;-70
2024/03/17 14:36:52;;;;;;;8.27;4.03;;;;;;;;;;5092259;28;20036;-69
2024/03/17 14:39:57;;;;;;;12.50;3.83;;;;;;;;;;5092354;28;20040;-69
2024/03/17 14:43:03;;;;;;;6.30;4.00;;;;;;;;;;5091889;28;20052;-69
2024/03/17 14:46:10;;;;;;;10.65;3.60;;;;;;;;;;5092135;28;20514;-70
2024/03/17 14:49:15;;;;;;;4.82;2.97;;;;;;;;;;5092084;28;20044;-69
2024/03/17 14:52:19;;;;;;;6.38;2.97;;;;;;;;;;5092175;28;20039;-69
2024/03/17 14:55:23;;;;;;;6.35;3.05;;;;;;;;;;5091880;28;20476;-69
2024/03/17 14:58:28;;;;;;;7.85;2.80;;;;;;;;;;5091782;28;20028;-70
2024/03/17 15:01:32;;;;;;;5.18;2.70;;;;;;;;;;5091944;28;20039;-69
2024/03/17 15:04:36;;;;;;;8.90;2.97;;;;;;;;;;5091837;28;20028;-69
2024/03/17 15:07:41;;;;;;;5.50;2.67;;;;;;;;;;5091756;28;20044;-69
2024/03/17 15:10:45;;;;;;;6.57;2.78;;;;;;;;;;5091018;28;20048;-69
2024/03/17 15:13:49;;;;;;;7.13;2.90;;;;;;;;;;5091551;28;20036;-69
2024/03/17 15:16:54;;;;;;;5.68;3.00;;;;;;;;;;5091527;28;20044;-69
2024/03/17 15:19:58;;;;;;;7.68;2.90;;;;;;;;;;5091650;28;20036;-69
2024/03/17 15:23:04;;;;;;;4.88;2.67;;;;;;;;;;5091554;28;20040;-69
2024/03/17 15:26:09;;;;;;;4.70;2.80;;;;;;;;;;5091071;28;20040;-69
2024/03/17 15:29:13;;;;;;;6.65;2.90;;;;;;;;;;5090316;28;20393;-70
2024/03/17 15:32:17;;;;;;;6.38;2.53;;;;;;;;;;5091163;28;20040;-69
2024/03/17 15:35:23;;;;;;;5.88;2.70;;;;;;;;;;5070446;28;20044;-69
2024/03/17 15:38:27;;;;;;;9.90;2.83;;;;;;;;;;5070839;28;20032;-69
2024/03/17 15:41:33;;;;;;;9.88;3.40;;;;;;;;;;5070967;28;20362;-69
2024/03/17 15:44:37;;;;;;;5.97;3.70;;;;;;;;;;5071039;28;20044;-70
2024/03/17 15:47:42;;;;;;;6.70;3.30;;;20.00;90.30;;;;;;5070686;28;20029;-69
2024/03/17 15:50:54;;;;;;;7.10;2.60;;;19.70;90.30;;;;;;5070477;28;20056;-69
2024/03/17 15:53:58;;;;;;;9.60;3.08;;;;;;;;;;5069665;28;20063;-69
2024/03/17 15:57:02;;;;;;;6.22;3.30;;;;;;;;;;5070733;28;20040;-69
2024/03/17 16:00:08;;;;;;;7.85;2.58;;;;;;;;;;5070878;28;20040;-69
2024/03/17 16:03:19;;;;;;;7.32;3.05;;;20.40;90.50;;;;;;5070815;28;20044;-70
2024/03/17 16:06:24;;;;;;;6.88;2.92;;;;;;;;;;5070666;28;20043;-69
2024/03/17 16:09:29;;;;;;;9.43;2.90;;;;;;;;;;5070684;28;20409;-69
2024/03/17 16:12:34;;;;;;;9.15;3.30;;;;;;;;;;5070750;28;20032;-69
2024/03/17 16:15:39;;;;;;;8.48;2.72;;;;;;;;;;5070799;28;20036;-70
2024/03/17 16:18:45;;;;;;;6.82;3.50;;;;;;;;;;5070636;28;20040;-69
2024/03/17 16:21:49;;;;;;;10.15;3.65;;;;;;;;;;5070593;28;20032;-68
2024/03/17 16:24:53;;;;;;;7.75;3.35;;;;;;;;;;5070189;28;20041;-68
2024/03/17 16:28:00;;;;;;;10.35;3.55;;;;;;;;;;5069481;28;20048;-69
2024/03/17 16:31:06;;;;;;;13.45;3.80;;;;;;;;;;5069694;28;20044;-68
2024/03/17 16:34:11;;;;;;;12.48;4.70;;;;;;;;;;5069676;28;20656;-67
2024/03/17 16:37:16;;;;;;;11.25;5.15;;;;;;;;;;5069824;28;20536;-68
2024/03/17 16:40:20;;;;;;;12.25;5.13;;;;;;;;;;5070325;28;20036;-69
2024/03/17 16:44:03;;;;;;;9.23;4.30;;;19.30;93.40;;;;;;5070062;28;20037;-68
2024/03/17 16:47:28;;;;;;;8.35;4.13;;;21.20;94.10;;;;;;5070208;28;20039;-68
2024/03/17 16:50:32;;;;;;;12.52;4.43;;;;;;;;;;5069014;28;20061;-68
2024/03/17 16:53:37;;;;;;;9.32;4.82;;;;;;;;;;5069669;28;20098;-68
2024/03/17 16:56:41;;;;;;;7.95;4.47;;;;;;;;;;5069236;28;20033;-69
2024/03/17 16:59:46;;;;;;;9.07;4.40;;;;;;;;;;5069961;28;20033;-68
2024/03/17 17:02:50;;;;;;;13.70;7.10;;;;;;;;;;5069928;28;20040;-68
2024/03/17 17:05:55;;;;;;;12.63;5.75;;;;;;;;;;5071549;28;20051;-68
2024/03/17 17:08:59;;;;;;;18.77;5.97;;;;;;;;;;5072714;28;20051;-68
2024/03/17 17:12:08;;;;;;;15.43;7.28;;;18.50;95.10;;;;;;5073707;28;20049;-68
2024/03/17 17:15:15;;;;;;;16.55;6.43;;;18.40;95.30;;;;;;5072376;28;20043;-68
2024/03/17 17:18:56;;;;;;;18.92;7.13;;;18.30;95.20;;;;;;5073328;28;20063;-68
2024/03/17 17:22:01;;;;;;;17.17;6.38;;;;;;;;;;5073215;28;20038;-68
2024/03/17 17:25:07;;;;;;;20.08;6.20;;;;;;;;;;5073304;28;20362;-68